sensor_id;sensor_type;location;lat;lon;timestamp;temperature;humidity
13707;DHT22;6925;47.816;13.072;2022-12-11T00:00:21;3.00;87.30
13707;DHT22;6925;47.816;13.072;2022-12-11T00:02:48;3.00;87.00
13707;DHT22;6925;47.816;13.072;2022-12-11T00:05:16;3.00;86.60
13707;DHT22;6925;47.816;13.072;2022-12-11T00:07:43;3.00;86.60
13707;DHT22;6925;47.816;13.072;2022-12-11T00:10:12;3.00;87.10
13707;DHT22;6925;47.816;13.072;2022-12-11T00:12:39;3.00;86.60
13707;DHT22;6925;47.816;13.072;2022-12-11T00:15:08;3.00;86.50
13707;DHT22;6925;47.816;13.072;2022-12-11T00:17:35;3.00;86.60
13707;DHT22;6925;47.816;13.072;2022-12-11T00:20:03;2.90;86.50
13707;DHT22;6925;47.816;13.072;2022-12-11T00:22:31;2.90;86.40
13707;DHT22;6925;47.816;13.072;2022-12-11T00:24:58;2.90;86.30
13707;DHT22;6925;47.816;13.072;2022-12-11T00:27:28;2.90;86.60
13707;DHT22;6925;47.816;13.072;2022-12-11T00:29:55;2.90;86.80
13707;DHT22;6925;47.816;13.072;2022-12-11T00:32:22;2.90;86.40
13707;DHT22;6925;47.816;13.072;2022-12-11T00:34:50;2.90;87.00
13707;DHT22;6925;47.816;13.072;2022-12-11T00:37:17;2.90;86.60
13707;DHT22;6925;47.816;13.072;2022-12-11T00:39:44;2.90;86.70
13707;DHT22;6925;47.816;13.072;2022-12-11T00:42:12;3.00;86.80
13707;DHT22;6925;47.816;13.072;2022-12-11T00:44:40;3.00;86.60
13707;DHT22;6925;47.816;13.072;2022-12-11T00:47:10;2.90;86.40
13707;DHT22;6925;47.816;13.072;2022-12-11T00:49:37;2.90;86.60
13707;DHT22;6925;47.816;13.072;2022-12-11T00:52:05;2.90;86.00
13707;DHT22;6925;47.816;13.072;2022-12-11T00:54:33;2.80;85.80
13707;DHT22;6925;47.816;13.072;2022-12-11T00:57:00;2.80;86.70
13707;DHT22;6925;47.816;13.072;2022-12-11T00:59:28;2.80;86.60
13707;DHT22;6925;47.816;13.072;2022-12-11T01:01:56;2.70;86.20
13707;DHT22;6925;47.816;13.072;2022-12-11T01:04:24;2.70;86.60
13707;DHT22;6925;47.816;13.072;2022-12-11T01:06:51;2.80;86.80
13707;DHT22;6925;47.816;13.072;2022-12-11T01:09:18;2.70;86.10
13707;DHT22;6925;47.816;13.072;2022-12-11T01:12:03;2.70;87.10
13707;DHT22;6925;47.816;13.072;2022-12-11T01:14:30;2.80;87.30
13707;DHT22;6925;47.816;13.072;2022-12-11T01:16:59;2.80;86.30
13707;DHT22;6925;47.816;13.072;2022-12-11T01:19:27;2.80;86.40
13707;DHT22;6925;47.816;13.072;2022-12-11T01:21:54;2.80;86.90
13707;DHT22;6925;47.816;13.072;2022-12-11T01:24:21;2.80;86.20
13707;DHT22;6925;47.816;13.072;2022-12-11T01:26:49;2.70;86.00
13707;DHT22;6925;47.816;13.072;2022-12-11T01:29:17;2.70;87.20
13707;DHT22;6925;47.816;13.072;2022-12-11T01:31:44;2.70;87.40
13707;DHT22;6925;47.816;13.072;2022-12-11T01:34:13;2.80;86.90
13707;DHT22;6925;47.816;13.072;2022-12-11T01:36:43;2.80;86.90
13707;DHT22;6925;47.816;13.072;2022-12-11T01:39:11;2.80;87.20
13707;DHT22;6925;47.816;13.072;2022-12-11T01:41:40;2.80;87.10
13707;DHT22;6925;47.816;13.072;2022-12-11T01:47:13;2.70;86.50
13707;DHT22;6925;47.816;13.072;2022-12-11T01:49:42;2.70;86.90
13707;DHT22;6925;47.816;13.072;2022-12-11T01:52:13;2.70;86.90
13707;DHT22;6925;47.816;13.072;2022-12-11T01:54:41;2.60;86.40
13707;DHT22;6925;47.816;13.072;2022-12-11T01:57:10;2.60;87.40
13707;DHT22;6925;47.816;13.072;2022-12-11T01:59:42;2.60;87.10
13707;DHT22;6925;47.816;13.072;2022-12-11T02:02:16;2.60;86.70
13707;DHT22;6925;47.816;13.072;2022-12-11T02:04:46;2.50;86.50
13707;DHT22;6925;47.816;13.072;2022-12-11T02:07:14;2.40;87.00
13707;DHT22;6925;47.816;13.072;2022-12-11T02:09:43;2.40;87.30
13707;DHT22;6925;47.816;13.072;2022-12-11T02:12:14;2.40;87.50
13707;DHT22;6925;47.816;13.072;2022-12-11T02:14:52;2.40;87.50
13707;DHT22;6925;47.816;13.072;2022-12-11T02:17:27;2.40;86.90
13707;DHT22;6925;47.816;13.072;2022-12-11T02:20:07;2.40;86.90
13707;DHT22;6925;47.816;13.072;2022-12-11T02:22:57;2.20;86.60
13707;DHT22;6925;47.816;13.072;2022-12-11T02:25:33;2.10;87.10
13707;DHT22;6925;47.816;13.072;2022-12-11T02:28:16;2.00;87.80
13707;DHT22;6925;47.816;13.072;2022-12-11T02:30:46;1.90;87.20
13707;DHT22;6925;47.816;13.072;2022-12-11T02:33:15;1.90;88.60
13707;DHT22;6925;47.816;13.072;2022-12-11T02:35:45;1.80;87.90
13707;DHT22;6925;47.816;13.072;2022-12-11T02:38:16;1.90;88.20
13707;DHT22;6925;47.816;13.072;2022-12-11T02:40:46;1.90;88.40
13707;DHT22;6925;47.816;13.072;2022-12-11T02:43:17;1.90;88.30
13707;DHT22;6925;47.816;13.072;2022-12-11T02:45:46;1.80;88.10
13707;DHT22;6925;47.816;13.072;2022-12-11T02:48:14;1.80;88.70
13707;DHT22;6925;47.816;13.072;2022-12-11T02:50:45;1.90;88.40
13707;DHT22;6925;47.816;13.072;2022-12-11T02:53:15;1.90;88.80
13707;DHT22;6925;47.816;13.072;2022-12-11T02:55:45;2.00;89.10
13707;DHT22;6925;47.816;13.072;2022-12-11T02:58:20;2.00;88.20
13707;DHT22;6925;47.816;13.072;2022-12-11T03:00:48;2.00;88.40
13707;DHT22;6925;47.816;13.072;2022-12-11T03:03:16;2.00;88.00
13707;DHT22;6925;47.816;13.072;2022-12-11T03:05:43;2.00;88.50
13707;DHT22;6925;47.816;13.072;2022-12-11T03:08:13;2.10;88.50
13707;DHT22;6925;47.816;13.072;2022-12-11T03:10:43;2.10;88.50
13707;DHT22;6925;47.816;13.072;2022-12-11T03:13:23;2.20;88.70
13707;DHT22;6925;47.816;13.072;2022-12-11T03:16:02;2.20;88.00
13707;DHT22;6925;47.816;13.072;2022-12-11T03:18:33;2.30;88.10
13707;DHT22;6925;47.816;13.072;2022-12-11T03:21:05;2.30;88.00
13707;DHT22;6925;47.816;13.072;2022-12-11T03:23:38;2.30;87.90
13707;DHT22;6925;47.816;13.072;2022-12-11T03:26:10;2.40;87.60
13707;DHT22;6925;47.816;13.072;2022-12-11T03:28:44;2.50;87.50
13707;DHT22;6925;47.816;13.072;2022-12-11T03:31:17;2.50;87.60
13707;DHT22;6925;47.816;13.072;2022-12-11T03:33:47;2.50;87.10
13707;DHT22;6925;47.816;13.072;2022-12-11T03:36:19;2.60;86.90
13707;DHT22;6925;47.816;13.072;2022-12-11T03:38:50;2.60;87.10
13707;DHT22;6925;47.816;13.072;2022-12-11T03:41:21;2.60;86.70
13707;DHT22;6925;47.816;13.072;2022-12-11T03:43:54;2.60;86.70
13707;DHT22;6925;47.816;13.072;2022-12-11T03:46:26;2.60;86.90
13707;DHT22;6925;47.816;13.072;2022-12-11T03:48:55;2.60;86.80
13707;DHT22;6925;47.816;13.072;2022-12-11T03:51:25;2.70;86.70
13707;DHT22;6925;47.816;13.072;2022-12-11T03:53:53;2.60;86.20
13707;DHT22;6925;47.816;13.072;2022-12-11T03:56:23;2.60;85.70
13707;DHT22;6925;47.816;13.072;2022-12-11T03:58:57;2.60;86.00
13707;DHT22;6925;47.816;13.072;2022-12-11T04:01:24;2.60;86.40
13707;DHT22;6925;47.816;13.072;2022-12-11T04:03:52;2.60;86.30
13707;DHT22;6925;47.816;13.072;2022-12-11T04:06:19;2.60;86.40
13707;DHT22;6925;47.816;13.072;2022-12-11T04:08:47;2.60;86.00
13707;DHT22;6925;47.816;13.072;2022-12-11T04:11:14;2.60;86.30
13707;DHT22;6925;47.816;13.072;2022-12-11T04:14:00;2.60;85.80
13707;DHT22;6925;47.816;13.072;2022-12-11T04:16:45;2.60;85.90
13707;DHT22;6925;47.816;13.072;2022-12-11T04:19:12;2.60;85.00
13707;DHT22;6925;47.816;13.072;2022-12-11T04:21:59;2.50;85.60
13707;DHT22;6925;47.816;13.072;2022-12-11T04:24:46;2.50;85.70
13707;DHT22;6925;47.816;13.072;2022-12-11T04:27:14;2.50;86.60
13707;DHT22;6925;47.816;13.072;2022-12-11T04:30:06;2.50;85.90
13707;DHT22;6925;47.816;13.072;2022-12-11T04:32:34;2.60;85.90
13707;DHT22;6925;47.816;13.072;2022-12-11T04:35:01;2.60;85.80
13707;DHT22;6925;47.816;13.072;2022-12-11T04:37:28;2.60;85.60
13707;DHT22;6925;47.816;13.072;2022-12-11T04:39:56;2.60;85.40
13707;DHT22;6925;47.816;13.072;2022-12-11T04:42:23;2.60;85.20
13707;DHT22;6925;47.816;13.072;2022-12-11T04:44:50;2.60;85.10
13707;DHT22;6925;47.816;13.072;2022-12-11T04:47:19;2.60;84.90
13707;DHT22;6925;47.816;13.072;2022-12-11T04:49:46;2.50;84.50
13707;DHT22;6925;47.816;13.072;2022-12-11T04:52:14;2.50;85.20
13707;DHT22;6925;47.816;13.072;2022-12-11T04:54:41;2.50;85.50
13707;DHT22;6925;47.816;13.072;2022-12-11T04:57:08;2.50;84.80
13707;DHT22;6925;47.816;13.072;2022-12-11T04:59:36;2.50;84.60
13707;DHT22;6925;47.816;13.072;2022-12-11T05:02:03;2.50;84.20
13707;DHT22;6925;47.816;13.072;2022-12-11T05:04:32;2.40;84.50
13707;DHT22;6925;47.816;13.072;2022-12-11T05:07:00;2.40;84.20
13707;DHT22;6925;47.816;13.072;2022-12-11T05:09:28;2.30;84.50
13707;DHT22;6925;47.816;13.072;2022-12-11T05:11:55;2.40;84.90
13707;DHT22;6925;47.816;13.072;2022-12-11T05:14:22;2.40;85.20
13707;DHT22;6925;47.816;13.072;2022-12-11T05:16:51;2.40;84.90
13707;DHT22;6925;47.816;13.072;2022-12-11T05:19:18;2.40;85.00
13707;DHT22;6925;47.816;13.072;2022-12-11T05:21:48;2.40;84.90
13707;DHT22;6925;47.816;13.072;2022-12-11T05:24:15;2.40;84.80
13707;DHT22;6925;47.816;13.072;2022-12-11T05:26:45;2.40;84.70
13707;DHT22;6925;47.816;13.072;2022-12-11T05:29:12;2.30;84.60
13707;DHT22;6925;47.816;13.072;2022-12-11T05:31:40;2.40;85.20
13707;DHT22;6925;47.816;13.072;2022-12-11T05:34:07;2.40;85.20
13707;DHT22;6925;47.816;13.072;2022-12-11T05:36:35;2.40;85.40
13707;DHT22;6925;47.816;13.072;2022-12-11T05:39:04;2.40;84.30
13707;DHT22;6925;47.816;13.072;2022-12-11T05:41:32;2.40;84.60
13707;DHT22;6925;47.816;13.072;2022-12-11T05:43:59;2.50;84.90
13707;DHT22;6925;47.816;13.072;2022-12-11T05:46:28;2.50;84.30
13707;DHT22;6925;47.816;13.072;2022-12-11T05:48:58;2.40;84.50
13707;DHT22;6925;47.816;13.072;2022-12-11T05:51:26;2.50;84.00
13707;DHT22;6925;47.816;13.072;2022-12-11T05:54:24;2.40;84.50
13707;DHT22;6925;47.816;13.072;2022-12-11T05:57:00;2.50;84.30
13707;DHT22;6925;47.816;13.072;2022-12-11T05:59:41;2.50;84.40
13707;DHT22;6925;47.816;13.072;2022-12-11T06:04:50;2.40;84.10
13707;DHT22;6925;47.816;13.072;2022-12-11T06:18:20;2.50;84.10
13707;DHT22;6925;47.816;13.072;2022-12-11T06:21:12;2.50;84.30
13707;DHT22;6925;47.816;13.072;2022-12-11T06:23:42;2.50;84.20
13707;DHT22;6925;47.816;13.072;2022-12-11T06:29:47;2.30;83.70
13707;DHT22;6925;47.816;13.072;2022-12-11T06:32:18;2.30;84.00
13707;DHT22;6925;47.816;13.072;2022-12-11T06:34:49;2.40;83.70
13707;DHT22;6925;47.816;13.072;2022-12-11T06:37:32;2.40;83.80
13707;DHT22;6925;47.816;13.072;2022-12-11T06:40:03;2.50;84.00
13707;DHT22;6925;47.816;13.072;2022-12-11T06:42:35;2.50;83.70
13707;DHT22;6925;47.816;13.072;2022-12-11T06:45:03;2.40;83.40
13707;DHT22;6925;47.816;13.072;2022-12-11T06:47:31;2.40;83.60
13707;DHT22;6925;47.816;13.072;2022-12-11T06:50:02;2.40;83.70
13707;DHT22;6925;47.816;13.072;2022-12-11T06:52:31;2.40;83.40
13707;DHT22;6925;47.816;13.072;2022-12-11T06:54:58;2.40;83.30
13707;DHT22;6925;47.816;13.072;2022-12-11T06:57:26;2.40;83.30
13707;DHT22;6925;47.816;13.072;2022-12-11T06:59:55;2.40;83.50
13707;DHT22;6925;47.816;13.072;2022-12-11T07:02:23;2.40;83.40
13707;DHT22;6925;47.816;13.072;2022-12-11T07:04:51;2.40;83.60
13707;DHT22;6925;47.816;13.072;2022-12-11T07:07:20;2.40;83.20
13707;DHT22;6925;47.816;13.072;2022-12-11T07:09:47;2.40;83.20
13707;DHT22;6925;47.816;13.072;2022-12-11T07:12:16;2.40;82.90
13707;DHT22;6925;47.816;13.072;2022-12-11T07:14:43;2.30;82.90
13707;DHT22;6925;47.816;13.072;2022-12-11T07:17:11;2.20;82.30
13707;DHT22;6925;47.816;13.072;2022-12-11T07:19:38;2.10;82.70
13707;DHT22;6925;47.816;13.072;2022-12-11T07:22:07;2.10;82.80
13707;DHT22;6925;47.816;13.072;2022-12-11T07:24:36;2.10;82.60
13707;DHT22;6925;47.816;13.072;2022-12-11T07:27:04;2.00;82.60
13707;DHT22;6925;47.816;13.072;2022-12-11T07:29:32;2.00;83.00
13707;DHT22;6925;47.816;13.072;2022-12-11T07:32:01;2.00;82.60
13707;DHT22;6925;47.816;13.072;2022-12-11T07:34:28;2.00;82.60
13707;DHT22;6925;47.816;13.072;2022-12-11T07:36:56;1.90;82.50
13707;DHT22;6925;47.816;13.072;2022-12-11T07:39:23;1.90;82.40
13707;DHT22;6925;47.816;13.072;2022-12-11T07:41:52;1.90;82.30
13707;DHT22;6925;47.816;13.072;2022-12-11T07:44:20;1.90;82.10
13707;DHT22;6925;47.816;13.072;2022-12-11T07:46:47;2.00;82.00
13707;DHT22;6925;47.816;13.072;2022-12-11T07:49:14;2.00;82.20
13707;DHT22;6925;47.816;13.072;2022-12-11T07:51:42;2.00;81.80
13707;DHT22;6925;47.816;13.072;2022-12-11T07:54:11;2.00;81.50
13707;DHT22;6925;47.816;13.072;2022-12-11T07:56:41;2.00;81.80
13707;DHT22;6925;47.816;13.072;2022-12-11T07:59:10;2.10;82.30
13707;DHT22;6925;47.816;13.072;2022-12-11T08:01:39;2.10;81.70
13707;DHT22;6925;47.816;13.072;2022-12-11T08:04:09;2.10;81.60
13707;DHT22;6925;47.816;13.072;2022-12-11T08:06:40;2.10;81.70
13707;DHT22;6925;47.816;13.072;2022-12-11T08:09:10;2.20;81.70
13707;DHT22;6925;47.816;13.072;2022-12-11T08:11:39;2.20;81.40
13707;DHT22;6925;47.816;13.072;2022-12-11T08:14:07;2.20;81.50
13707;DHT22;6925;47.816;13.072;2022-12-11T08:16:36;2.10;81.20
13707;DHT22;6925;47.816;13.072;2022-12-11T08:19:07;2.10;81.80
13707;DHT22;6925;47.816;13.072;2022-12-11T08:21:35;2.10;81.00
13707;DHT22;6925;47.816;13.072;2022-12-11T08:24:02;2.00;80.70
13707;DHT22;6925;47.816;13.072;2022-12-11T08:26:30;1.90;80.60
13707;DHT22;6925;47.816;13.072;2022-12-11T08:28:59;1.70;81.50
13707;DHT22;6925;47.816;13.072;2022-12-11T08:31:26;1.70;81.90
13707;DHT22;6925;47.816;13.072;2022-12-11T08:33:56;1.70;82.40
13707;DHT22;6925;47.816;13.072;2022-12-11T08:36:24;1.80;82.60
13707;DHT22;6925;47.816;13.072;2022-12-11T08:38:51;1.90;82.10
13707;DHT22;6925;47.816;13.072;2022-12-11T08:41:24;1.90;81.80
13707;DHT22;6925;47.816;13.072;2022-12-11T08:43:53;1.80;82.10
13707;DHT22;6925;47.816;13.072;2022-12-11T08:46:22;1.80;82.20
13707;DHT22;6925;47.816;13.072;2022-12-11T08:48:49;1.90;82.60
13707;DHT22;6925;47.816;13.072;2022-12-11T08:51:20;1.90;82.80
13707;DHT22;6925;47.816;13.072;2022-12-11T08:53:48;2.00;82.70
13707;DHT22;6925;47.816;13.072;2022-12-11T08:56:19;2.10;82.90
13707;DHT22;6925;47.816;13.072;2022-12-11T08:58:49;2.20;82.60
13707;DHT22;6925;47.816;13.072;2022-12-11T09:01:18;2.20;82.30
13707;DHT22;6925;47.816;13.072;2022-12-11T09:03:48;2.20;82.20
13707;DHT22;6925;47.816;13.072;2022-12-11T09:06:18;2.30;81.70
13707;DHT22;6925;47.816;13.072;2022-12-11T09:08:48;2.30;81.70
13707;DHT22;6925;47.816;13.072;2022-12-11T09:11:17;2.30;81.50
13707;DHT22;6925;47.816;13.072;2022-12-11T09:13:44;2.20;80.50
13707;DHT22;6925;47.816;13.072;2022-12-11T09:16:14;2.20;81.70
13707;DHT22;6925;47.816;13.072;2022-12-11T09:18:44;2.30;82.00
13707;DHT22;6925;47.816;13.072;2022-12-11T09:21:13;2.40;81.70
13707;DHT22;6925;47.816;13.072;2022-12-11T09:23:43;2.30;81.10
13707;DHT22;6925;47.816;13.072;2022-12-11T09:26:14;2.30;81.10
13707;DHT22;6925;47.816;13.072;2022-12-11T09:28:42;2.30;81.00
13707;DHT22;6925;47.816;13.072;2022-12-11T09:31:10;2.20;80.60
13707;DHT22;6925;47.816;13.072;2022-12-11T09:33:39;2.30;81.40
13707;DHT22;6925;47.816;13.072;2022-12-11T09:36:06;2.20;81.20
13707;DHT22;6925;47.816;13.072;2022-12-11T09:38:39;2.20;81.50
13707;DHT22;6925;47.816;13.072;2022-12-11T09:41:28;2.20;80.50
13707;DHT22;6925;47.816;13.072;2022-12-11T09:44:05;2.20;81.00
13707;DHT22;6925;47.816;13.072;2022-12-11T09:47:02;2.20;80.70
13707;DHT22;6925;47.816;13.072;2022-12-11T09:49:37;2.20;80.90
13707;DHT22;6925;47.816;13.072;2022-12-11T09:52:11;2.20;80.90
13707;DHT22;6925;47.816;13.072;2022-12-11T09:54:46;2.20;80.60
13707;DHT22;6925;47.816;13.072;2022-12-11T10:17:19;2.10;80.00
13707;DHT22;6925;47.816;13.072;2022-12-11T10:19:52;2.00;80.20
13707;DHT22;6925;47.816;13.072;2022-12-11T10:29:14;2.20;80.50
13707;DHT22;6925;47.816;13.072;2022-12-11T10:31:47;2.20;80.50
13707;DHT22;6925;47.816;13.072;2022-12-11T10:34:24;2.20;80.40
13707;DHT22;6925;47.816;13.072;2022-12-11T10:36:56;2.20;79.60
13707;DHT22;6925;47.816;13.072;2022-12-11T10:39:23;2.10;79.30
13707;DHT22;6925;47.816;13.072;2022-12-11T10:48:53;2.20;79.70
13707;DHT22;6925;47.816;13.072;2022-12-11T10:51:34;2.10;79.70
13707;DHT22;6925;47.816;13.072;2022-12-11T10:54:30;2.10;79.60
13707;DHT22;6925;47.816;13.072;2022-12-11T10:56:59;2.00;78.60
13707;DHT22;6925;47.816;13.072;2022-12-11T10:59:35;2.00;80.00
13707;DHT22;6925;47.816;13.072;2022-12-11T11:02:04;2.10;80.60
13707;DHT22;6925;47.816;13.072;2022-12-11T11:04:36;2.20;79.90
13707;DHT22;6925;47.816;13.072;2022-12-11T11:07:12;2.30;79.50
13707;DHT22;6925;47.816;13.072;2022-12-11T11:09:41;2.20;78.60
13707;DHT22;6925;47.816;13.072;2022-12-11T11:12:20;2.20;79.40
13707;DHT22;6925;47.816;13.072;2022-12-11T11:15:03;2.40;80.10
13707;DHT22;6925;47.816;13.072;2022-12-11T11:17:41;2.50;80.20
13707;DHT22;6925;47.816;13.072;2022-12-11T11:35:53;3.00;78.40
13707;DHT22;6925;47.816;13.072;2022-12-11T11:38:22;3.00;78.70
13707;DHT22;6925;47.816;13.072;2022-12-11T11:41:12;3.00;78.70
13707;DHT22;6925;47.816;13.072;2022-12-11T11:43:43;3.00;77.80
13707;DHT22;6925;47.816;13.072;2022-12-11T11:46:15;2.90;77.20
13707;DHT22;6925;47.816;13.072;2022-12-11T11:48:50;2.90;78.00
13707;DHT22;6925;47.816;13.072;2022-12-11T11:51:26;2.90;78.30
13707;DHT22;6925;47.816;13.072;2022-12-11T11:54:00;2.90;78.40
13707;DHT22;6925;47.816;13.072;2022-12-11T11:56:31;2.90;78.00
13707;DHT22;6925;47.816;13.072;2022-12-11T11:59:05;3.00;77.50
13707;DHT22;6925;47.816;13.072;2022-12-11T12:01:37;2.90;76.20
13707;DHT22;6925;47.816;13.072;2022-12-11T12:04:07;2.70;75.70
13707;DHT22;6925;47.816;13.072;2022-12-11T12:06:50;2.60;76.70
13707;DHT22;6925;47.816;13.072;2022-12-11T12:09:32;2.70;77.60
13707;DHT22;6925;47.816;13.072;2022-12-11T12:12:14;2.70;77.00
13707;DHT22;6925;47.816;13.072;2022-12-11T12:15:09;2.60;75.90
13707;DHT22;6925;47.816;13.072;2022-12-11T12:17:51;2.40;75.10
13707;DHT22;6925;47.816;13.072;2022-12-11T12:20:28;2.30;75.90
13707;DHT22;6925;47.816;13.072;2022-12-11T12:23:24;2.30;77.70
13707;DHT22;6925;47.816;13.072;2022-12-11T12:26:02;2.30;76.30
13707;DHT22;6925;47.816;13.072;2022-12-11T12:28:37;2.20;75.00
13707;DHT22;6925;47.816;13.072;2022-12-11T12:31:17;2.20;76.60
13707;DHT22;6925;47.816;13.072;2022-12-11T12:37:44;2.30;77.50
13707;DHT22;6925;47.816;13.072;2022-12-11T12:43:49;2.40;76.40
13707;DHT22;6925;47.816;13.072;2022-12-11T12:46:31;2.40;76.90
13707;DHT22;6925;47.816;13.072;2022-12-11T12:49:18;2.40;76.40
13707;DHT22;6925;47.816;13.072;2022-12-11T12:51:52;2.50;76.60
13707;DHT22;6925;47.816;13.072;2022-12-11T12:54:21;2.50;76.30
13707;DHT22;6925;47.816;13.072;2022-12-11T12:56:49;2.50;76.10
13707;DHT22;6925;47.816;13.072;2022-12-11T12:59:24;2.50;76.30
13707;DHT22;6925;47.816;13.072;2022-12-11T13:01:59;2.50;76.30
13707;DHT22;6925;47.816;13.072;2022-12-11T13:04:40;2.60;76.70
13707;DHT22;6925;47.816;13.072;2022-12-11T13:07:18;2.60;76.70
13707;DHT22;6925;47.816;13.072;2022-12-11T13:10:03;2.60;76.00
13707;DHT22;6925;47.816;13.072;2022-12-11T13:12:40;2.60;76.60
13707;DHT22;6925;47.816;13.072;2022-12-11T13:15:39;2.60;76.70
13707;DHT22;6925;47.816;13.072;2022-12-11T13:18:39;2.60;76.90
13707;DHT22;6925;47.816;13.072;2022-12-11T13:21:29;2.60;77.00
13707;DHT22;6925;47.816;13.072;2022-12-11T13:24:13;2.60;76.70
13707;DHT22;6925;47.816;13.072;2022-12-11T13:26:43;2.60;76.80
13707;DHT22;6925;47.816;13.072;2022-12-11T13:29:30;2.60;77.00
13707;DHT22;6925;47.816;13.072;2022-12-11T13:32:01;2.60;77.10
13707;DHT22;6925;47.816;13.072;2022-12-11T13:34:32;2.60;76.90
13707;DHT22;6925;47.816;13.072;2022-12-11T13:37:00;2.60;76.70
13707;DHT22;6925;47.816;13.072;2022-12-11T13:39:39;2.50;76.90
13707;DHT22;6925;47.816;13.072;2022-12-11T13:42:23;2.60;76.70
13707;DHT22;6925;47.816;13.072;2022-12-11T13:44:52;2.50;76.60
13707;DHT22;6925;47.816;13.072;2022-12-11T13:47:21;2.50;76.30
13707;DHT22;6925;47.816;13.072;2022-12-11T13:49:52;2.50;76.40
13707;DHT22;6925;47.816;13.072;2022-12-11T13:55:56;2.50;76.70
13707;DHT22;6925;47.816;13.072;2022-12-11T14:02:14;2.40;76.50
13707;DHT22;6925;47.816;13.072;2022-12-11T14:05:11;2.50;75.50
13707;DHT22;6925;47.816;13.072;2022-12-11T14:07:42;2.50;75.60
13707;DHT22;6925;47.816;13.072;2022-12-11T14:10:15;2.30;74.50
13707;DHT22;6925;47.816;13.072;2022-12-11T16:01:24;1.80;75.50
13707;DHT22;6925;47.816;13.072;2022-12-11T16:28:02;1.60;75.80
13707;DHT22;6925;47.816;13.072;2022-12-11T16:30:35;1.60;76.10
13707;DHT22;6925;47.816;13.072;2022-12-11T16:33:05;1.60;75.20
13707;DHT22;6925;47.816;13.072;2022-12-11T16:35:40;1.60;75.70
13707;DHT22;6925;47.816;13.072;2022-12-11T16:38:52;1.60;75.80
13707;DHT22;6925;47.816;13.072;2022-12-11T16:41:08;1.60;76.00
13707;DHT22;6925;47.816;13.072;2022-12-11T16:43:40;1.70;75.80
13707;DHT22;6925;47.816;13.072;2022-12-11T16:46:08;1.60;75.90
13707;DHT22;6925;47.816;13.072;2022-12-11T16:48:35;1.70;75.90
13707;DHT22;6925;47.816;13.072;2022-12-11T16:51:08;1.70;75.70
13707;DHT22;6925;47.816;13.072;2022-12-11T16:53:38;1.70;75.70
13707;DHT22;6925;47.816;13.072;2022-12-11T16:56:07;1.70;75.50
13707;DHT22;6925;47.816;13.072;2022-12-11T16:58:34;1.60;75.40
13707;DHT22;6925;47.816;13.072;2022-12-11T17:01:10;1.60;75.40
13707;DHT22;6925;47.816;13.072;2022-12-11T17:03:42;1.70;75.40
13707;DHT22;6925;47.816;13.072;2022-12-11T17:06:11;1.70;75.30
13707;DHT22;6925;47.816;13.072;2022-12-11T17:08:39;1.60;75.10
13707;DHT22;6925;47.816;13.072;2022-12-11T17:11:09;1.60;75.30
13707;DHT22;6925;47.816;13.072;2022-12-11T17:13:36;1.60;75.40
13707;DHT22;6925;47.816;13.072;2022-12-11T17:16:05;1.60;75.10
13707;DHT22;6925;47.816;13.072;2022-12-11T17:18:34;1.60;75.20
13707;DHT22;6925;47.816;13.072;2022-12-11T17:21:05;1.60;75.50
13707;DHT22;6925;47.816;13.072;2022-12-11T17:23:32;1.60;75.30
13707;DHT22;6925;47.816;13.072;2022-12-11T17:26:00;1.60;75.30
13707;DHT22;6925;47.816;13.072;2022-12-11T17:28:28;1.60;75.20
13707;DHT22;6925;47.816;13.072;2022-12-11T17:30:55;1.70;75.20
13707;DHT22;6925;47.816;13.072;2022-12-11T17:33:22;1.60;75.20
13707;DHT22;6925;47.816;13.072;2022-12-11T17:35:58;1.60;75.10
13707;DHT22;6925;47.816;13.072;2022-12-11T17:38:28;1.70;75.10
13707;DHT22;6925;47.816;13.072;2022-12-11T17:41:00;1.60;74.70
13707;DHT22;6925;47.816;13.072;2022-12-11T17:43:36;1.60;74.80
13707;DHT22;6925;47.816;13.072;2022-12-11T17:46:13;1.60;74.80
13707;DHT22;6925;47.816;13.072;2022-12-11T17:48:44;1.60;74.90
13707;DHT22;6925;47.816;13.072;2022-12-11T17:51:15;1.60;74.90
13707;DHT22;6925;47.816;13.072;2022-12-11T17:53:48;1.60;75.10
13707;DHT22;6925;47.816;13.072;2022-12-11T17:56:16;1.60;74.90
13707;DHT22;6925;47.816;13.072;2022-12-11T17:58:46;1.60;74.80
13707;DHT22;6925;47.816;13.072;2022-12-11T18:01:13;1.50;74.60
13707;DHT22;6925;47.816;13.072;2022-12-11T18:03:41;1.50;74.90
13707;DHT22;6925;47.816;13.072;2022-12-11T18:06:10;1.50;75.00
13707;DHT22;6925;47.816;13.072;2022-12-11T18:08:40;1.50;74.90
13707;DHT22;6925;47.816;13.072;2022-12-11T18:11:09;1.50;74.60
13707;DHT22;6925;47.816;13.072;2022-12-11T18:13:37;1.50;74.50
13707;DHT22;6925;47.816;13.072;2022-12-11T18:16:07;1.40;74.50
13707;DHT22;6925;47.816;13.072;2022-12-11T18:18:36;1.40;75.00
13707;DHT22;6925;47.816;13.072;2022-12-11T18:21:03;1.40;75.00
13707;DHT22;6925;47.816;13.072;2022-12-11T18:23:31;1.50;75.20
13707;DHT22;6925;47.816;13.072;2022-12-11T18:25:59;1.50;75.20
13707;DHT22;6925;47.816;13.072;2022-12-11T18:28:27;1.60;75.30
13707;DHT22;6925;47.816;13.072;2022-12-11T18:30:58;1.60;75.30
13707;DHT22;6925;47.816;13.072;2022-12-11T18:33:26;1.60;75.30
13707;DHT22;6925;47.816;13.072;2022-12-11T18:35:53;1.60;75.20
13707;DHT22;6925;47.816;13.072;2022-12-11T18:38:21;1.60;75.10
13707;DHT22;6925;47.816;13.072;2022-12-11T18:40:48;1.60;75.00
13707;DHT22;6925;47.816;13.072;2022-12-11T18:43:17;1.50;75.00
13707;DHT22;6925;47.816;13.072;2022-12-11T18:45:44;1.60;75.10
13707;DHT22;6925;47.816;13.072;2022-12-11T18:48:12;1.50;74.40
13707;DHT22;6925;47.816;13.072;2022-12-11T18:50:43;1.40;74.70
13707;DHT22;6925;47.816;13.072;2022-12-11T18:53:11;1.40;75.20
13707;DHT22;6925;47.816;13.072;2022-12-11T18:55:40;1.40;75.20
13707;DHT22;6925;47.816;13.072;2022-12-11T18:58:08;1.50;75.40
13707;DHT22;6925;47.816;13.072;2022-12-11T19:00:37;1.50;75.20
13707;DHT22;6925;47.816;13.072;2022-12-11T19:03:07;1.50;74.70
13707;DHT22;6925;47.816;13.072;2022-12-11T19:05:44;1.40;74.80
13707;DHT22;6925;47.816;13.072;2022-12-11T19:08:26;1.40;75.10
13707;DHT22;6925;47.816;13.072;2022-12-11T19:10:59;1.50;75.10
13707;DHT22;6925;47.816;13.072;2022-12-11T19:13:33;1.50;75.20
13707;DHT22;6925;47.816;13.072;2022-12-11T19:16:09;1.50;75.30
13707;DHT22;6925;47.816;13.072;2022-12-11T19:18:51;1.50;75.20
13707;DHT22;6925;47.816;13.072;2022-12-11T19:24:52;1.50;75.00
13707;DHT22;6925;47.816;13.072;2022-12-11T19:27:25;1.50;75.00
13707;DHT22;6925;47.816;13.072;2022-12-11T19:29:55;1.50;74.90
13707;DHT22;6925;47.816;13.072;2022-12-11T19:32:28;1.50;74.70
13707;DHT22;6925;47.816;13.072;2022-12-11T19:34:57;1.50;74.50
13707;DHT22;6925;47.816;13.072;2022-12-11T19:37:25;1.40;74.30
13707;DHT22;6925;47.816;13.072;2022-12-11T19:39:52;1.40;74.20
13707;DHT22;6925;47.816;13.072;2022-12-11T19:42:20;1.40;74.00
13707;DHT22;6925;47.816;13.072;2022-12-11T19:44:49;1.40;74.00
13707;DHT22;6925;47.816;13.072;2022-12-11T19:47:16;1.30;73.70
13707;DHT22;6925;47.816;13.072;2022-12-11T19:49:45;1.30;73.50
13707;DHT22;6925;47.816;13.072;2022-12-11T19:52:13;1.20;73.60